createdAt,value
2019-01-29T00:00:13.931Z,3.63
2019-01-29T00:02:44.084Z,7.00
2019-01-29T00:05:12.451Z,3.87
2019-01-29T00:07:40.733Z,3.33
2019-01-29T00:10:08.976Z,4.63
2019-01-29T00:12:37.249Z,5.70
2019-01-29T00:15:08.312Z,6.00
2019-01-29T00:17:36.581Z,4.33
2019-01-29T00:20:07.714Z,5.53
2019-01-29T00:22:36.310Z,4.87
2019-01-29T00:25:06.895Z,4.93
2019-01-29T00:27:35.149Z,8.83
2019-01-29T00:30:05.643Z,5.70
2019-01-29T00:32:33.915Z,4.47
2019-01-29T00:35:02.155Z,2.93
2019-01-29T00:37:30.679Z,4.07
2019-01-29T00:39:58.919Z,5.43
2019-01-29T00:42:27.180Z,3.63
2019-01-29T00:44:55.425Z,5.17
2019-01-29T00:47:24.106Z,4.33
2019-01-29T00:49:52.404Z,5.57
2019-01-29T00:52:20.681Z,5.63
2019-01-29T00:54:49.227Z,5.90
2019-01-29T00:57:17.564Z,5.87
2019-01-29T00:59:45.818Z,3.63
2019-01-29T01:02:14.081Z,4.30
2019-01-29T01:04:42.328Z,3.50
2019-01-29T01:07:10.582Z,4.60
2019-01-29T01:09:39.202Z,4.67
2019-01-29T01:12:07.441Z,5.70
2019-01-29T01:14:35.712Z,9.77
2019-01-29T01:17:03.974Z,5.40
2019-01-29T01:19:32.624Z,4.43
2019-01-29T01:22:00.863Z,6.37
2019-01-29T01:24:29.145Z,4.00
2019-01-29T01:26:57.650Z,5.73
2019-01-29T01:29:26.228Z,4.33
2019-01-29T01:31:54.457Z,6.17
2019-01-29T01:34:22.729Z,5.27
2019-01-29T01:36:51.012Z,4.00
2019-01-29T01:39:19.302Z,3.07
2019-01-29T01:41:47.922Z,5.63
2019-01-29T01:44:16.181Z,3.73
2019-01-29T01:46:44.431Z,4.53
2019-01-29T01:49:12.717Z,4.23
2019-01-29T01:51:40.953Z,9.80
2019-01-29T01:54:09.216Z,2.40
2019-01-29T01:56:37.463Z,2.17
2019-01-29T01:59:05.724Z,3.03
2019-01-29T02:01:34.334Z,8.10
2019-01-29T02:04:02.610Z,5.90
2019-01-29T02:06:30.863Z,4.40
2019-01-29T02:08:59.141Z,6.20
2019-01-29T02:11:27.381Z,4.07
2019-01-29T02:13:55.663Z,4.70
2019-01-29T02:16:23.925Z,3.43
2019-01-29T02:18:52.191Z,5.90
2019-01-29T02:21:20.847Z,6.10
2019-01-29T02:23:49.463Z,4.30
2019-01-29T02:26:17.766Z,3.30
2019-01-29T02:28:46.031Z,7.43
2019-01-29T02:31:14.317Z,2.67
2019-01-29T02:33:42.570Z,5.00
2019-01-29T02:36:10.837Z,5.97
2019-01-29T02:38:39.094Z,3.97
2019-01-29T02:41:07.662Z,4.03
2019-01-29T02:43:36.233Z,2.00
2019-01-29T02:46:04.485Z,3.40
2019-01-29T02:48:32.942Z,2.53
2019-01-29T02:51:01.205Z,5.07
2019-01-29T02:53:29.758Z,2.77
2019-01-29T02:55:58.007Z,4.77
2019-01-29T02:58:26.273Z,3.33
2019-01-29T03:00:54.508Z,7.93
2019-01-29T03:03:22.797Z,2.27
2019-01-29T03:05:51.344Z,4.70
2019-01-29T03:08:19.622Z,3.03
2019-01-29T03:10:47.867Z,4.13
2019-01-29T03:13:16.133Z,5.60
2019-01-29T03:15:44.771Z,4.20
2019-01-29T03:18:13.040Z,4.87
2019-01-29T03:20:41.292Z,3.87
2019-01-29T03:23:09.530Z,3.17
2019-01-29T03:25:37.818Z,7.10
2019-01-29T03:28:06.445Z,4.10
2019-01-29T03:30:34.743Z,3.17
2019-01-29T03:33:03.041Z,6.97
2019-01-29T03:35:31.669Z,7.23
2019-01-29T03:38:00.057Z,4.93
2019-01-29T03:40:28.634Z,5.07
2019-01-29T03:42:57.220Z,3.20
2019-01-29T03:45:25.496Z,2.97
2019-01-29T03:47:54.196Z,2.77
2019-01-29T03:50:23.193Z,5.73
2019-01-29T03:52:51.445Z,6.40
2019-01-29T03:55:19.806Z,4.17
2019-01-29T03:57:48.415Z,8.13
2019-01-29T04:00:26.628Z,4.50
2019-01-29T04:02:54.982Z,7.07
2019-01-29T04:05:23.264Z,6.33
2019-01-29T04:07:51.585Z,14.60
2019-01-29T04:10:20.118Z,30.60
2019-01-29T04:12:48.376Z,10.47
2019-01-29T04:15:18.457Z,3.97
2019-01-29T04:17:46.698Z,7.13
2019-01-29T04:20:17.001Z,4.90
2019-01-29T04:22:45.957Z,5.47
2019-01-29T04:25:14.834Z,2.73
2019-01-29T04:27:43.080Z,2.97
2019-01-29T04:30:16.946Z,7.13
2019-01-29T04:32:45.181Z,3.17
2019-01-29T04:35:13.467Z,4.83
2019-01-29T04:37:41.778Z,4.77
2019-01-29T04:40:13.383Z,4.40
2019-01-29T04:42:41.782Z,8.87
2019-01-29T04:45:12.470Z,5.17
2019-01-29T04:47:40.697Z,4.87
2019-01-29T04:50:11.899Z,3.63
2019-01-29T04:52:40.571Z,3.80
2019-01-29T04:55:11.774Z,6.37
2019-01-29T04:57:40.167Z,5.67
2019-01-29T05:00:11.778Z,6.37
2019-01-29T05:02:40.020Z,6.30
2019-01-29T05:05:10.032Z,7.43
2019-01-29T05:07:38.274Z,5.57
2019-01-29T05:10:09.283Z,2.60
2019-01-29T05:12:37.539Z,8.97
2019-01-29T05:15:09.121Z,5.80
2019-01-29T05:17:37.411Z,5.67
2019-01-29T05:20:08.972Z,5.57
2019-01-29T05:22:37.224Z,7.50
2019-01-29T05:25:07.623Z,6.97
2019-01-29T05:27:35.940Z,2.90
2019-01-29T05:30:10.549Z,4.57
2019-01-29T05:32:38.796Z,5.23
2019-01-29T05:35:08.964Z,5.77
2019-01-29T05:37:37.267Z,5.73
2019-01-29T05:40:11.619Z,3.27
2019-01-29T05:42:39.856Z,4.97
2019-01-29T05:45:12.197Z,7.20
2019-01-29T05:47:40.764Z,7.93
2019-01-29T05:50:11.355Z,7.20
2019-01-29T05:52:39.638Z,3.50
2019-01-29T05:55:09.313Z,6.30
2019-01-29T05:57:37.650Z,4.27
2019-01-29T06:00:18.858Z,7.43
2019-01-29T06:02:48.622Z,3.77
2019-01-29T06:05:17.446Z,5.50
2019-01-29T06:07:45.773Z,3.17
2019-01-29T06:10:18.032Z,7.47
2019-01-29T06:12:46.762Z,3.73
2019-01-29T06:15:17.708Z,6.47
2019-01-29T06:17:45.982Z,5.40
2019-01-29T06:20:18.370Z,3.17
2019-01-29T06:22:46.936Z,4.27
2019-01-29T06:25:15.224Z,5.77
2019-01-29T06:27:43.898Z,3.90
2019-01-29T06:30:17.732Z,7.27
2019-01-29T06:32:46.010Z,6.60
2019-01-29T06:35:15.906Z,5.10
2019-01-29T06:37:45.216Z,6.80
2019-01-29T06:40:37.611Z,7.87
2019-01-29T06:43:06.235Z,5.30
2019-01-29T06:45:34.836Z,9.93
2019-01-29T06:48:03.105Z,7.43
2019-01-29T06:50:31.386Z,5.77
2019-01-29T06:53:00.053Z,8.00
2019-01-29T06:55:28.381Z,4.27
2019-01-29T06:57:56.695Z,6.60
2019-01-29T07:00:28.502Z,6.23
2019-01-29T07:02:57.104Z,6.63
2019-01-29T07:05:25.495Z,4.90
2019-01-29T07:07:54.097Z,9.30
2019-01-29T07:10:24.054Z,7.80
2019-01-29T07:12:52.322Z,5.47
2019-01-29T07:15:41.602Z,7.03
2019-01-29T07:18:21.002Z,5.60
2019-01-29T07:20:49.255Z,5.43
2019-01-29T07:23:17.696Z,8.17
2019-01-29T07:25:45.995Z,8.37
2019-01-29T07:28:15.197Z,11.87
2019-01-29T07:30:43.704Z,12.07
2019-01-29T07:33:12.295Z,8.30
2019-01-29T07:35:40.865Z,7.93
2019-01-29T07:38:09.138Z,7.47
2019-01-29T07:40:37.730Z,9.70
2019-01-29T07:43:06.084Z,8.60
2019-01-29T07:45:34.309Z,7.90
2019-01-29T07:48:02.863Z,8.50
2019-01-29T07:50:31.123Z,6.43
2019-01-29T07:52:59.466Z,8.27
2019-01-29T07:55:27.709Z,8.07
2019-01-29T07:57:56.244Z,8.87
2019-01-29T08:00:24.652Z,7.93
2019-01-29T08:02:52.919Z,5.40
2019-01-29T08:05:21.181Z,9.40
2019-01-29T08:07:49.797Z,8.23
2019-01-29T08:10:18.504Z,6.57
2019-01-29T08:12:46.833Z,10.30
2019-01-29T08:15:17.407Z,8.07
2019-01-29T08:17:45.740Z,16.50
2019-01-29T08:20:15.322Z,10.17
2019-01-29T08:22:43.601Z,6.20
2019-01-29T08:25:11.932Z,6.03
2019-01-29T08:27:40.453Z,7.17
2019-01-29T08:30:14.659Z,6.07
2019-01-29T08:32:43.218Z,7.60
2019-01-29T08:35:13.289Z,7.43
2019-01-29T08:37:41.807Z,6.07
2019-01-29T08:40:11.969Z,6.70
2019-01-29T08:42:40.346Z,6.47
2019-01-29T08:45:13.978Z,7.13
2019-01-29T08:47:42.254Z,7.27
2019-01-29T08:50:24.700Z,6.30
2019-01-29T08:52:52.990Z,6.23
2019-01-29T08:55:21.559Z,7.67
2019-01-29T08:57:49.834Z,7.07
2019-01-29T09:00:22.522Z,7.13
2019-01-29T09:02:50.808Z,6.60
2019-01-29T09:05:19.623Z,7.00
2019-01-29T09:07:47.956Z,5.40
2019-01-29T09:10:20.736Z,8.77
2019-01-29T09:12:49.051Z,6.17
2019-01-29T09:15:23.480Z,6.57
2019-01-29T09:17:51.826Z,9.40
2019-01-29T09:20:21.406Z,6.30
2019-01-29T09:22:49.938Z,7.03
2019-01-29T09:25:22.295Z,9.40
2019-01-29T09:27:48.934Z,5.37
2019-01-29T09:30:18.971Z,4.80
2019-01-29T09:32:47.263Z,7.97
2019-01-29T09:35:15.570Z,9.20
2019-01-29T09:37:43.868Z,6.73
2019-01-29T09:40:17.929Z,7.10
2019-01-29T09:42:46.537Z,7.47
2019-01-29T09:45:17.607Z,6.40
2019-01-29T09:47:45.865Z,6.47
2019-01-29T09:50:22.054Z,5.90
2019-01-29T09:52:50.675Z,4.80
2019-01-29T09:55:28.838Z,9.67
2019-01-29T09:57:53.617Z,15.33
2019-01-29T10:00:30.729Z,10.33
2019-01-29T10:02:59.009Z,10.33
2019-01-29T10:05:27.247Z,14.40
2019-01-29T10:07:55.483Z,13.30
2019-01-29T10:10:23.770Z,11.97
2019-01-29T10:12:52.018Z,16.43
2019-01-29T10:15:26.397Z,11.73
2019-01-29T10:17:54.943Z,14.60
2019-01-29T10:20:23.498Z,12.67
2019-01-29T10:22:51.760Z,11.07
2019-01-29T10:25:20.041Z,11.40
2019-01-29T10:27:48.581Z,13.90
2019-01-29T10:30:19.098Z,11.93
2019-01-29T10:32:47.354Z,17.97
2019-01-29T10:35:17.562Z,16.23
2019-01-29T10:37:45.797Z,12.03
2019-01-29T10:40:16.435Z,11.53
2019-01-29T10:42:44.696Z,9.37
2019-01-29T10:45:15.513Z,10.40
2019-01-29T10:47:44.124Z,7.87
2019-01-29T10:50:15.658Z,7.90
2019-01-29T10:52:43.910Z,5.97
2019-01-29T10:55:12.533Z,8.80
2019-01-29T10:57:40.792Z,7.37
2019-01-29T11:00:15.220Z,8.67
2019-01-29T11:02:43.797Z,9.70
2019-01-29T11:05:15.252Z,10.67
2019-01-29T11:07:43.485Z,9.13
2019-01-29T11:10:14.264Z,12.20
2019-01-29T11:12:42.497Z,8.60
2019-01-29T11:15:16.966Z,9.20
2019-01-29T11:17:45.529Z,9.67
2019-01-29T11:20:16.338Z,8.27
2019-01-29T11:22:44.882Z,10.40
2019-01-29T11:25:18.675Z,7.87
2019-01-29T11:27:47.003Z,8.93
2019-01-29T11:30:23.959Z,9.50
2019-01-29T11:32:52.292Z,13.70
2019-01-29T11:35:20.876Z,11.97
2019-01-29T11:37:49.185Z,13.53
2019-01-29T11:40:31.660Z,8.67
2019-01-29T11:43:00.281Z,12.97
2019-01-29T11:45:34.451Z,10.40
2019-01-29T11:48:02.755Z,8.37
2019-01-29T11:50:31.031Z,13.13
2019-01-29T11:52:59.279Z,12.90
2019-01-29T11:55:27.579Z,13.03
2019-01-29T11:57:55.847Z,11.57
2019-01-29T12:00:34.038Z,12.90
2019-01-29T12:03:02.351Z,16.13
2019-01-29T12:05:30.646Z,11.63
2019-01-29T12:07:58.889Z,12.33
2019-01-29T12:10:27.163Z,13.17
2019-01-29T12:12:55.412Z,10.43
2019-01-29T12:15:23.681Z,14.83
2019-01-29T12:17:52.287Z,8.80
2019-01-29T12:20:21.259Z,13.63
2019-01-29T12:22:49.898Z,15.50
2019-01-29T12:25:18.459Z,13.37
2019-01-29T12:27:47.033Z,12.33
2019-01-29T12:30:21.324Z,14.37
2019-01-29T12:32:50.439Z,14.87
2019-01-29T12:35:18.889Z,16.27
2019-01-29T12:37:47.133Z,12.67
2019-01-29T12:40:15.416Z,13.10
2019-01-29T12:42:43.673Z,13.77
2019-01-29T12:45:14.188Z,13.23
2019-01-29T12:47:42.795Z,15.97
2019-01-29T12:50:25.912Z,10.20
2019-01-29T12:53:03.803Z,14.47
2019-01-29T12:55:32.605Z,16.17
2019-01-29T12:58:00.985Z,12.93
2019-01-29T13:00:30.922Z,17.27
2019-01-29T13:02:59.301Z,14.87
2019-01-29T13:05:27.604Z,12.13
2019-01-29T13:07:55.854Z,14.03
2019-01-29T13:10:30.561Z,14.27
2019-01-29T13:12:59.083Z,15.33
2019-01-29T13:15:30.284Z,11.93
2019-01-29T13:18:00.062Z,12.77
2019-01-29T13:20:28.641Z,13.50
2019-01-29T13:22:56.907Z,17.43
2019-01-29T13:25:25.216Z,12.93
2019-01-29T13:27:53.445Z,16.40
2019-01-29T13:30:36.636Z,14.20
2019-01-29T13:33:10.719Z,17.67
2019-01-29T13:35:39.241Z,13.67
2019-01-29T13:38:08.828Z,10.37
2019-01-29T13:40:37.189Z,12.30
2019-01-29T13:43:06.303Z,11.97
2019-01-29T13:45:34.649Z,11.10
2019-01-29T13:48:02.909Z,11.57
2019-01-29T13:50:34.696Z,10.73
2019-01-29T13:53:02.946Z,13.87
2019-01-29T13:55:31.590Z,10.90
2019-01-29T13:58:00.151Z,10.83
2019-01-29T14:00:33.469Z,14.03
2019-01-29T14:03:02.391Z,8.63
2019-01-29T14:05:30.625Z,8.40
2019-01-29T14:08:01.881Z,10.63
2019-01-29T14:10:31.859Z,9.23
2019-01-29T14:13:00.142Z,8.77
2019-01-29T14:15:30.351Z,8.10
2019-01-29T14:17:58.722Z,14.07
2019-01-29T14:20:26.963Z,9.87
2019-01-29T14:22:55.266Z,10.77
2019-01-29T14:25:23.511Z,9.37
2019-01-29T14:27:52.093Z,10.33
2019-01-29T14:30:28.470Z,7.23
2019-01-29T14:33:02.108Z,8.67
2019-01-29T14:35:30.371Z,7.87
2019-01-29T14:38:02.127Z,7.03
2019-01-29T14:40:32.162Z,10.23
2019-01-29T14:43:00.657Z,10.73
2019-01-29T14:45:30.997Z,6.57
2019-01-29T14:47:59.287Z,11.60
2019-01-29T14:50:27.605Z,5.80
2019-01-29T14:52:56.174Z,5.27
2019-01-29T14:55:24.465Z,5.40
2019-01-29T14:57:53.017Z,8.43
2019-01-29T15:00:29.844Z,5.67
2019-01-29T15:02:58.115Z,6.97
2019-01-29T15:05:26.692Z,4.80
2019-01-29T15:07:55.399Z,4.60
2019-01-29T15:10:29.061Z,4.40
2019-01-29T15:12:57.413Z,6.67
2019-01-29T15:15:27.882Z,6.80
2019-01-29T15:17:57.817Z,9.03
2019-01-29T15:20:26.082Z,3.70
2019-01-29T15:22:54.421Z,4.60
2019-01-29T15:25:22.750Z,4.50
2019-01-29T15:27:50.985Z,5.40
2019-01-29T15:30:28.171Z,4.03
2019-01-29T15:32:56.548Z,4.90
2019-01-29T15:35:24.856Z,2.70
2019-01-29T15:37:54.636Z,5.53
2019-01-29T15:40:23.749Z,7.50
2019-01-29T15:42:52.443Z,4.37
2019-01-29T15:45:25.935Z,5.83
2019-01-29T15:47:54.211Z,4.67
2019-01-29T15:50:31.334Z,5.33
2019-01-29T15:52:59.767Z,6.77
2019-01-29T15:55:28.004Z,2.40
2019-01-29T15:57:56.310Z,7.10
2019-01-29T16:00:34.721Z,6.83
2019-01-29T16:03:03.054Z,4.90
2019-01-29T16:05:41.225Z,4.77
2019-01-29T16:08:11.714Z,6.83
2019-01-29T16:10:41.554Z,5.47
2019-01-29T16:13:09.845Z,3.90
2019-01-29T16:15:38.435Z,3.97
2019-01-29T16:18:06.693Z,6.00
2019-01-29T16:20:35.297Z,7.93
2019-01-29T16:23:03.823Z,8.83
2019-01-29T16:25:33.811Z,8.47
2019-01-29T16:28:02.370Z,9.87
2019-01-29T16:30:35.717Z,11.10
2019-01-29T16:33:04.553Z,11.97
2019-01-29T16:35:38.143Z,13.57
2019-01-29T16:38:10.344Z,17.80
2019-01-29T16:40:41.360Z,13.80
2019-01-29T16:43:09.607Z,11.10
2019-01-29T16:45:37.900Z,10.90
2019-01-29T16:48:07.759Z,10.10
2019-01-29T16:50:36.082Z,12.87
2019-01-29T16:53:05.770Z,10.57
2019-01-29T16:55:34.431Z,11.43
2019-01-29T16:58:03.200Z,9.13
2019-01-29T17:00:32.895Z,9.20
2019-01-29T17:03:01.989Z,12.37
2019-01-29T17:05:30.809Z,11.97
2019-01-29T17:07:59.367Z,12.60
2019-01-29T17:10:32.180Z,12.57
2019-01-29T17:13:00.728Z,12.70
2019-01-29T17:15:34.292Z,14.73
2019-01-29T17:18:02.606Z,18.90
2019-01-29T17:20:39.630Z,10.87
2019-01-29T17:23:10.093Z,15.33
2019-01-29T17:25:38.466Z,14.97
2019-01-29T17:28:06.755Z,13.93
2019-01-29T17:30:40.460Z,13.50
2019-01-29T17:33:09.367Z,14.27
2019-01-29T17:35:39.698Z,17.23
2019-01-29T17:38:08.020Z,12.43
2019-01-29T17:40:36.283Z,11.93
2019-01-29T17:43:04.825Z,15.40
2019-01-29T17:45:35.625Z,12.53
2019-01-29T17:48:04.148Z,16.23
2019-01-29T17:50:41.421Z,14.90
2019-01-29T17:53:09.834Z,12.53
2019-01-29T17:55:39.369Z,14.87
2019-01-29T17:58:08.810Z,17.03
2019-01-29T18:00:38.709Z,12.97
2019-01-29T18:03:07.376Z,14.50
2019-01-29T18:05:35.655Z,22.33
2019-01-29T18:08:04.296Z,13.70
2019-01-29T18:10:32.801Z,14.23
2019-01-29T18:13:01.446Z,14.20
2019-01-29T18:15:30.822Z,12.83
2019-01-29T18:17:59.110Z,16.33
2019-01-29T18:20:27.379Z,13.03
2019-01-29T18:22:55.640Z,12.53
2019-01-29T18:25:23.936Z,18.50
2019-01-29T18:28:01.006Z,14.73
2019-01-29T18:30:30.941Z,16.77
2019-01-29T18:32:59.244Z,21.53
2019-01-29T18:35:28.163Z,36.87
2019-01-29T18:37:56.681Z,19.37
2019-01-29T18:40:37.452Z,15.20
2019-01-29T18:43:06.069Z,13.67
2019-01-29T18:45:34.374Z,16.67
2019-01-29T18:48:03.001Z,17.53
2019-01-29T18:50:31.347Z,17.00
2019-01-29T18:52:59.652Z,15.90
2019-01-29T18:55:27.910Z,14.50
2019-01-29T18:57:56.455Z,16.20
2019-01-29T19:00:26.139Z,16.67
2019-01-29T19:02:54.532Z,16.70
2019-01-29T19:05:24.885Z,14.80
2019-01-29T19:07:53.130Z,15.93
2019-01-29T19:10:21.849Z,17.00
2019-01-29T19:12:50.329Z,14.67
2019-01-29T19:15:21.621Z,15.23
2019-01-29T19:17:50.146Z,24.00
2019-01-29T19:20:20.882Z,30.13
2019-01-29T19:22:49.124Z,24.50
2019-01-29T19:25:17.634Z,18.70
2019-01-29T19:27:45.933Z,17.10
2019-01-29T19:30:23.264Z,14.60
2019-01-29T19:32:51.513Z,16.80
2019-01-29T19:35:20.012Z,14.13
2019-01-29T19:37:48.310Z,12.47
2019-01-29T19:40:18.549Z,12.97
2019-01-29T19:42:47.427Z,13.73
2019-01-29T19:45:28.118Z,13.50
2019-01-29T19:47:57.163Z,15.50
2019-01-29T19:50:28.462Z,15.63
2019-01-29T19:52:59.128Z,13.63
2019-01-29T19:55:26.981Z,15.20
2019-01-29T19:57:55.227Z,16.87
2019-01-29T20:00:26.511Z,19.30
2019-01-29T20:02:57.028Z,11.70
2019-01-29T20:05:24.729Z,15.73
2019-01-29T20:07:53.398Z,15.77
2019-01-29T20:10:22.778Z,10.67
2019-01-29T20:12:51.804Z,32.27
2019-01-29T20:15:22.386Z,13.37
2019-01-29T20:17:51.786Z,12.03
2019-01-29T20:20:23.189Z,10.13
2019-01-29T20:22:51.486Z,14.10
2019-01-29T20:25:20.150Z,15.00
2019-01-29T20:27:48.415Z,14.47
2019-01-29T20:30:20.209Z,10.83
2019-01-29T20:32:53.379Z,15.03
2019-01-29T20:35:18.496Z,12.20
2019-01-29T20:37:46.742Z,11.50
2019-01-29T20:40:17.948Z,13.10
2019-01-29T20:42:46.213Z,14.70
2019-01-29T20:45:15.420Z,14.43
2019-01-29T20:47:43.675Z,13.57
2019-01-29T20:50:18.161Z,12.87
2019-01-29T20:52:47.982Z,11.90
2019-01-29T20:55:16.250Z,12.97
2019-01-29T20:57:44.537Z,15.57
2019-01-29T21:00:18.560Z,14.80
2019-01-29T21:02:48.138Z,15.53
2019-01-29T21:05:16.385Z,13.53
2019-01-29T21:07:44.696Z,12.47
2019-01-29T21:10:17.579Z,16.27
2019-01-29T21:12:45.993Z,11.93
2019-01-29T21:15:21.760Z,13.20
2019-01-29T21:17:50.288Z,14.43
2019-01-29T21:20:27.095Z,12.67
2019-01-29T21:22:55.402Z,11.70
2019-01-29T21:25:23.650Z,16.33
2019-01-29T21:27:51.926Z,12.63
2019-01-29T21:30:23.158Z,15.60
2019-01-29T21:32:51.717Z,17.13
2019-01-29T21:35:20.017Z,14.77
2019-01-29T21:37:48.332Z,13.40
2019-01-29T21:40:17.315Z,19.67
2019-01-29T21:42:45.566Z,23.67
2019-01-29T21:45:18.520Z,34.20
2019-01-29T21:47:47.788Z,14.63
2019-01-29T21:50:27.568Z,17.43
2019-01-29T21:52:56.081Z,16.20
2019-01-29T21:55:24.459Z,17.27
2019-01-29T21:57:52.700Z,14.93
2019-01-29T22:00:28.227Z,18.37
2019-01-29T22:02:56.473Z,15.70
2019-01-29T22:05:25.051Z,14.60
2019-01-29T22:07:53.325Z,15.50
2019-01-29T22:10:21.678Z,15.37
2019-01-29T22:12:50.200Z,18.73
2019-01-29T22:15:23.034Z,16.53
2019-01-29T22:17:51.320Z,11.57
2019-01-29T22:20:23.978Z,16.77
2019-01-29T22:22:52.252Z,14.63
2019-01-29T22:25:22.891Z,15.50
2019-01-29T22:27:51.516Z,14.00
2019-01-29T22:30:31.725Z,17.90
2019-01-29T22:33:00.314Z,15.70
2019-01-29T22:35:28.602Z,19.23
2019-01-29T22:37:57.106Z,72.70
2019-01-29T22:40:27.849Z,22.63
2019-01-29T22:42:56.625Z,14.30
2019-01-29T22:45:25.118Z,11.83
2019-01-29T22:47:53.395Z,13.77
2019-01-29T22:50:24.690Z,13.50
2019-01-29T22:52:53.063Z,13.47
2019-01-29T22:55:21.693Z,13.50
2019-01-29T22:57:50.042Z,14.07
2019-01-29T23:00:50.574Z,12.47
2019-01-29T23:03:21.727Z,12.53
2019-01-29T23:05:53.269Z,13.77
2019-01-29T23:08:21.523Z,10.40
2019-01-29T23:10:50.132Z,11.93
2019-01-29T23:13:18.943Z,15.37
2019-01-29T23:15:47.492Z,11.60
2019-01-29T23:18:15.758Z,13.30
2019-01-29T23:20:44.410Z,12.80
2019-01-29T23:23:13.041Z,13.67
2019-01-29T23:25:41.625Z,10.73
2019-01-29T23:28:09.892Z,10.93
2019-01-29T23:30:38.245Z,11.23
2019-01-29T23:33:06.543Z,10.80
2019-01-29T23:35:34.803Z,9.07
2019-01-29T23:38:03.144Z,13.10
2019-01-29T23:40:31.402Z,11.43
2019-01-29T23:42:59.730Z,9.90
2019-01-29T23:45:28.046Z,9.03
2019-01-29T23:48:02.376Z,12.63
2019-01-29T23:50:31.551Z,9.80
2019-01-29T23:52:59.842Z,13.80
2019-01-29T23:55:28.201Z,11.93
2019-01-29T23:57:56.488Z,11.63
